Check out our new PWSWeather beta!
PWSweather.com
Personal Weather Stations
Station Observations
WD4JKH
Forsyth, GA 31029

Forsyth, GA 31029

Lat: 33.033225, Lon: -83.927995

Elevation: 709

Station Type: Davis Vantage VUE

High Low Average
Temperature 65.1°F18.4°C 38.8°F3.8°C 53.1°F11.7°C
Dew Point 51.2°F10.7°C 37.1°F2.8°C 45.1°F7.3°C
Winds 6.4 mph 10.3 kmh Calm Calm 1.0 mph S1.6 kmh S
Wind Gusts 13.0 mph20.9 kmh -- 4.0 mph6.4 kmh
Humidity 95% 59% 75%
Pressure 30.09 in1019.0 mb 29.99 in1015.6 mb -
Precipitation 0.00 in0.0 mm - -
Hour Temp Dew Point Humidity Winds Wind Gusts Pressure Precip Precip Rate Daily Precip Total
12:01 AM 49.0°F9.4°C 40.8°F4.9°C 73% 1.8 mph SW2.9 kmh SW 5.0 mph8.0 kmh 30.00 in1015.9 mb 0.00 in0.0 mm 0.00 in0.0 mm 0.00 in0.0 mm
12:06 AM 48.7°F9.3°C 40.5°F4.7°C 73% 1.5 mph SW2.4 kmh SW 5.0 mph8.0 kmh 30.00 in1015.9 mb 0.00 in0.0 mm 0.00 in0.0 mm 0.00 in0.0 mm
12:11 AM 48.3°F9.1°C 40.5°F4.7°C 74% 1.3 mph WSW2.1 kmh WSW 4.0 mph6.4 kmh 30.00 in1015.9 mb 0.00 in0.0 mm 0.00 in0.0 mm 0.00 in0.0 mm
12:16 AM 48.1°F8.9°C 40.6°F4.8°C 75% 1.5 mph WSW2.4 kmh WSW 4.0 mph6.4 kmh 30.00 in1015.9 mb 0.00 in0.0 mm 0.00 in0.0 mm 0.00 in0.0 mm
12:21 AM 47.9°F8.8°C 40.4°F4.7°C 75% 1.1 mph SW1.8 kmh SW 4.0 mph6.4 kmh 30.00 in1015.9 mb 0.00 in0.0 mm 0.00 in0.0 mm 0.00 in0.0 mm
12:26 AM 47.7°F8.7°C 40.6°F4.8°C 76% 1.0 mph SW1.6 kmh SW 3.0 mph4.8 kmh 30.00 in1015.9 mb 0.00 in0.0 mm 0.00 in0.0 mm 0.00 in0.0 mm
12:31 AM 47.6°F8.7°C 40.4°F4.7°C 76% 1.2 mph WSW1.9 kmh WSW 3.0 mph4.8 kmh 30.00 in1015.9 mb 0.00 in0.0 mm 0.00 in0.0 mm 0.00 in0.0 mm
12:36 AM 47.6°F8.7°C 40.5°F4.7°C 76% 1.1 mph SW1.8 kmh SW 2.0 mph3.2 kmh 30.00 in1015.9 mb 0.00 in0.0 mm 0.00 in0.0 mm 0.00 in0.0 mm
12:41 AM 47.5°F8.6°C 40.4°F4.7°C 76% 1.0 mph WSW1.6 kmh WSW 2.0 mph3.2 kmh 30.00 in1015.9 mb 0.00 in0.0 mm 0.00 in0.0 mm 0.00 in0.0 mm
12:46 AM 47.4°F8.6°C 40.2°F4.6°C 76% 1.1 mph WSW1.8 kmh WSW 2.0 mph3.2 kmh 30.00 in1015.9 mb 0.00 in0.0 mm 0.00 in0.0 mm 0.00 in0.0 mm
12:51 AM 47.3°F8.5°C 40.2°F4.6°C 76% Calm Calm 2.0 mph3.2 kmh 30.00 in1015.9 mb 0.00 in0.0 mm 0.00 in0.0 mm 0.00 in0.0 mm
12:56 AM 47.0°F8.3°C 40.2°F4.6°C 77% Calm Calm 2.0 mph3.2 kmh 30.00 in1015.9 mb 0.00 in0.0 mm 0.00 in0.0 mm 0.00 in0.0 mm
01:01 AM 46.4°F8.0°C 40.0°F4.4°C 78% 1.0 mph WSW1.6 kmh WSW 2.0 mph3.2 kmh 30.00 in1015.9 mb 0.00 in0.0 mm 0.00 in0.0 mm 0.00 in0.0 mm
01:06 AM 46.5°F8.1°C 40.3°F4.6°C 79% 1.1 mph SW1.8 kmh SW 2.0 mph3.2 kmh 30.00 in1015.9 mb 0.00 in0.0 mm 0.00 in0.0 mm 0.00 in0.0 mm
01:11 AM 46.5°F8.1°C 40.1°F4.5°C 78% Calm Calm 2.0 mph3.2 kmh 29.99 in1015.6 mb 0.00 in0.0 mm 0.00 in0.0 mm 0.00 in0.0 mm
01:16 AM 46.3°F7.9°C 40.2°F4.6°C 79% Calm Calm 2.0 mph3.2 kmh 29.99 in1015.6 mb 0.00 in0.0 mm 0.00 in0.0 mm 0.00 in0.0 mm
01:21 AM 46.2°F7.9°C 40.1°F4.5°C 79% Calm Calm 2.0 mph3.2 kmh 29.99 in1015.6 mb 0.00 in0.0 mm 0.00 in0.0 mm 0.00 in0.0 mm
01:26 AM 46.2°F7.9°C 40.0°F4.4°C 79% Calm Calm 1.0 mph1.6 kmh 29.99 in1015.6 mb 0.00 in0.0 mm 0.00 in0.0 mm 0.00 in0.0 mm
01:31 AM 46.0°F7.8°C 39.9°F4.4°C 79% Calm Calm -- 30.00 in1015.9 mb 0.00 in0.0 mm 0.00 in0.0 mm 0.00 in0.0 mm
01:36 AM 46.3°F7.9°C 40.2°F4.6°C 79% 1.1 mph WSW1.8 kmh WSW 2.0 mph3.2 kmh 30.00 in1015.9 mb 0.00 in0.0 mm 0.00 in0.0 mm 0.00 in0.0 mm
01:41 AM 46.5°F8.1°C 40.1°F4.5°C 78% 1.0 mph SW1.6 kmh SW 2.0 mph3.2 kmh 30.01 in1016.3 mb 0.00 in0.0 mm 0.00 in0.0 mm 0.00 in0.0 mm
01:46 AM 46.5°F8.1°C 40.0°F4.4°C 78% 1.4 mph WSW2.3 kmh WSW 3.0 mph4.8 kmh 30.01 in1016.3 mb 0.00 in0.0 mm 0.00 in0.0 mm 0.00 in0.0 mm
01:51 AM 46.3°F7.9°C 40.2°F4.6°C 79% 1.1 mph WSW1.8 kmh WSW 3.0 mph4.8 kmh 30.01 in1016.3 mb 0.00 in0.0 mm 0.00 in0.0 mm 0.00 in0.0 mm
01:56 AM 46.1°F7.8°C 40.0°F4.4°C 79% 1.3 mph SW2.1 kmh SW 4.0 mph6.4 kmh 30.00 in1015.9 mb 0.00 in0.0 mm 0.00 in0.0 mm 0.00 in0.0 mm
02:01 AM 46.0°F7.8°C 39.9°F4.4°C 79% 1.0 mph WSW1.6 kmh WSW 4.0 mph6.4 kmh 30.00 in1015.9 mb 0.00 in0.0 mm 0.00 in0.0 mm 0.00 in0.0 mm
02:06 AM 45.9°F7.7°C 40.1°F4.5°C 80% 1.0 mph WSW1.6 kmh WSW 4.0 mph6.4 kmh 30.00 in1015.9 mb 0.00 in0.0 mm 0.00 in0.0 mm 0.00 in0.0 mm
02:11 AM 46.2°F7.9°C 40.4°F4.7°C 80% 1.3 mph WSW2.1 kmh WSW 2.0 mph3.2 kmh 30.01 in1016.3 mb 0.00 in0.0 mm 0.00 in0.0 mm 0.00 in0.0 mm
02:16 AM 46.6°F8.1°C 40.5°F4.7°C 79% 2.3 mph WSW3.7 kmh WSW 4.0 mph6.4 kmh 30.00 in1015.9 mb 0.00 in0.0 mm 0.00 in0.0 mm 0.00 in0.0 mm
02:20 AM 46.7°F8.2°C 40.2°F4.6°C 78% 1.3 mph WSW2.1 kmh WSW 4.0 mph6.4 kmh 30.00 in1015.9 mb 0.00 in0.0 mm 0.00 in0.0 mm 0.00 in0.0 mm
02:25 AM 46.8°F8.2°C 40.3°F4.6°C 78% 1.0 mph WSW1.6 kmh WSW 4.0 mph6.4 kmh 30.00 in1015.9 mb 0.00 in0.0 mm 0.00 in0.0 mm 0.00 in0.0 mm
02:30 AM 47.1°F8.4°C 40.6°F4.8°C 78% 1.0 mph WSW1.6 kmh WSW 4.0 mph6.4 kmh 30.00 in1015.9 mb 0.00 in0.0 mm 0.00 in0.0 mm 0.00 in0.0 mm
02:35 AM 47.5°F8.6°C 40.7°F4.8°C 77% 1.3 mph W2.1 kmh W 2.0 mph3.2 kmh 30.00 in1015.9 mb 0.00 in0.0 mm 0.00 in0.0 mm 0.00 in0.0 mm
02:40 AM 47.8°F8.8°C 40.7°F4.8°C 76% 1.0 mph WSW1.6 kmh WSW 2.0 mph3.2 kmh 30.00 in1015.9 mb 0.00 in0.0 mm 0.00 in0.0 mm 0.00 in0.0 mm
02:45 AM 48.1°F8.9°C 41.0°F5.0°C 76% 1.1 mph WSW1.8 kmh WSW 2.0 mph3.2 kmh 30.00 in1015.9 mb 0.00 in0.0 mm 0.00 in0.0 mm 0.00 in0.0 mm
02:50 AM 48.2°F9.0°C 40.7°F4.8°C 75% 1.3 mph WSW2.1 kmh WSW 2.0 mph3.2 kmh 30.00 in1015.9 mb 0.00 in0.0 mm 0.00 in0.0 mm 0.00 in0.0 mm
02:55 AM 48.2°F9.0°C 40.6°F4.8°C 75% 1.2 mph WSW1.9 kmh WSW 2.0 mph3.2 kmh 30.00 in1015.9 mb 0.00 in0.0 mm 0.00 in0.0 mm 0.00 in0.0 mm
03:00 AM 48.2°F9.0°C 40.7°F4.8°C 75% 1.1 mph WSW1.8 kmh WSW 2.0 mph3.2 kmh 30.00 in1015.9 mb 0.00 in0.0 mm 0.00 in0.0 mm 0.00 in0.0 mm
03:05 AM 48.2°F9.0°C 40.7°F4.8°C 75% 1.2 mph WSW1.9 kmh WSW 3.0 mph4.8 kmh 30.00 in1015.9 mb 0.00 in0.0 mm 0.00 in0.0 mm 0.00 in0.0 mm
03:10 AM 48.2°F9.0°C 40.7°F4.8°C 75% 1.4 mph WSW2.3 kmh WSW 3.0 mph4.8 kmh 30.00 in1015.9 mb 0.00 in0.0 mm 0.00 in0.0 mm 0.00 in0.0 mm
03:15 AM 47.9°F8.8°C 40.4°F4.7°C 75% 1.3 mph WSW2.1 kmh WSW 3.0 mph4.8 kmh 30.00 in1015.9 mb 0.00 in0.0 mm 0.00 in0.0 mm 0.00 in0.0 mm
03:20 AM 47.6°F8.7°C 40.5°F4.7°C 76% 1.0 mph WSW1.6 kmh WSW 3.0 mph4.8 kmh 30.00 in1015.9 mb 0.00 in0.0 mm 0.00 in0.0 mm 0.00 in0.0 mm
03:25 AM 47.3°F8.5°C 40.5°F4.7°C 77% 1.0 mph WSW1.6 kmh WSW 3.0 mph4.8 kmh 30.00 in1015.9 mb 0.00 in0.0 mm 0.00 in0.0 mm 0.00 in0.0 mm
03:30 AM 47.2°F8.4°C 40.4°F4.7°C 77% 1.4 mph WSW2.3 kmh WSW 3.0 mph4.8 kmh 30.00 in1015.9 mb 0.00 in0.0 mm 0.00 in0.0 mm 0.00 in0.0 mm
03:35 AM 47.2°F8.4°C 40.4°F4.7°C 77% 1.2 mph WSW1.9 kmh WSW 2.0 mph3.2 kmh 30.00 in1015.9 mb 0.00 in0.0 mm 0.00 in0.0 mm 0.00 in0.0 mm
03:40 AM 47.1°F8.4°C 40.6°F4.8°C 78% 1.3 mph WSW2.1 kmh WSW 2.0 mph3.2 kmh 30.00 in1015.9 mb 0.00 in0.0 mm 0.00 in0.0 mm 0.00 in0.0 mm
03:45 AM 47.0°F8.3°C 40.5°F4.7°C 78% 1.0 mph WSW1.6 kmh WSW 2.0 mph3.2 kmh 30.01 in1016.3 mb 0.00 in0.0 mm 0.00 in0.0 mm 0.00 in0.0 mm
03:50 AM 47.0°F8.3°C 40.5°F4.7°C 78% 1.1 mph WSW1.8 kmh WSW 3.0 mph4.8 kmh 30.00 in1015.9 mb 0.00 in0.0 mm 0.00 in0.0 mm 0.00 in0.0 mm
03:55 AM 47.0°F8.3°C 40.5°F4.7°C 78% 1.0 mph WSW1.6 kmh WSW 3.0 mph4.8 kmh 30.01 in1016.3 mb 0.00 in0.0 mm 0.00 in0.0 mm 0.00 in0.0 mm
04:00 AM 46.9°F8.3°C 40.4°F4.7°C 78% Calm Calm 3.0 mph4.8 kmh 30.00 in1015.9 mb 0.00 in0.0 mm 0.00 in0.0 mm 0.00 in0.0 mm
04:05 AM 46.7°F8.2°C 40.2°F4.6°C 78% Calm Calm 3.0 mph4.8 kmh 30.00 in1015.9 mb 0.00 in0.0 mm 0.00 in0.0 mm 0.00 in0.0 mm
04:10 AM 46.1°F7.8°C 40.0°F4.4°C 79% Calm Calm 2.0 mph3.2 kmh 29.99 in1015.6 mb 0.00 in0.0 mm 0.00 in0.0 mm 0.00 in0.0 mm
04:15 AM 45.5°F7.5°C 39.7°F4.3°C 80% Calm Calm 1.0 mph1.6 kmh 29.99 in1015.6 mb 0.00 in0.0 mm 0.00 in0.0 mm 0.00 in0.0 mm
04:20 AM 44.5°F6.9°C 39.0°F3.9°C 81% Calm Calm -- 29.99 in1015.6 mb 0.00 in0.0 mm 0.00 in0.0 mm 0.00 in0.0 mm
04:25 AM 43.3°F6.3°C 38.5°F3.6°C 83% 1.1 mph E1.8 kmh E 2.0 mph3.2 kmh 29.99 in1015.6 mb 0.00 in0.0 mm 0.00 in0.0 mm 0.00 in0.0 mm
04:30 AM 42.7°F5.9°C 38.5°F3.6°C 85% Calm Calm 2.0 mph3.2 kmh 30.00 in1015.9 mb 0.00 in0.0 mm 0.00 in0.0 mm 0.00 in0.0 mm
04:35 AM 42.3°F5.7°C 38.1°F3.4°C 85% Calm Calm 2.0 mph3.2 kmh 30.00 in1015.9 mb 0.00 in0.0 mm 0.00 in0.0 mm 0.00 in0.0 mm
04:40 AM 41.9°F5.5°C 38.0°F3.3°C 86% Calm Calm 2.0 mph3.2 kmh 30.00 in1015.9 mb 0.00 in0.0 mm 0.00 in0.0 mm 0.00 in0.0 mm
04:45 AM 41.8°F5.4°C 38.2°F3.4°C 87% Calm Calm -- 30.00 in1015.9 mb 0.00 in0.0 mm 0.00 in0.0 mm 0.00 in0.0 mm
04:50 AM 41.5°F5.3°C 37.9°F3.3°C 87% Calm Calm -- 30.00 in1015.9 mb 0.00 in0.0 mm 0.00 in0.0 mm 0.00 in0.0 mm
04:55 AM 41.5°F5.3°C 38.2°F3.4°C 88% Calm Calm 1.0 mph1.6 kmh 30.00 in1015.9 mb 0.00 in0.0 mm 0.00 in0.0 mm 0.00 in0.0 mm
05:00 AM 41.2°F5.1°C 37.9°F3.3°C 88% Calm Calm 1.0 mph1.6 kmh 30.01 in1016.3 mb 0.00 in0.0 mm 0.00 in0.0 mm 0.00 in0.0 mm
05:05 AM 41.1°F5.1°C 38.1°F3.4°C 89% Calm Calm 1.0 mph1.6 kmh 30.00 in1015.9 mb 0.00 in0.0 mm 0.00 in0.0 mm 0.00 in0.0 mm
05:10 AM 41.1°F5.1°C 38.1°F3.4°C 89% Calm Calm -- 30.01 in1016.3 mb 0.00 in0.0 mm 0.00 in0.0 mm 0.00 in0.0 mm
05:15 AM 41.0°F5.0°C 38.2°F3.4°C 90% Calm Calm -- 30.01 in1016.3 mb 0.00 in0.0 mm 0.00 in0.0 mm 0.00 in0.0 mm
05:20 AM 40.9°F4.9°C 38.2°F3.4°C 90% Calm Calm -- 30.01 in1016.3 mb 0.00 in0.0 mm 0.00 in0.0 mm 0.00 in0.0 mm
05:25 AM 40.6°F4.8°C 37.9°F3.3°C 90% Calm Calm -- 30.02 in1016.6 mb 0.00 in0.0 mm 0.00 in0.0 mm 0.00 in0.0 mm
05:30 AM 40.5°F4.7°C 38.0°F3.3°C 91% Calm Calm -- 30.02 in1016.6 mb 0.00 in0.0 mm 0.00 in0.0 mm 0.00 in0.0 mm
05:35 AM 40.5°F4.7°C 38.0°F3.3°C 91% Calm Calm -- 30.02 in1016.6 mb 0.00 in0.0 mm 0.00 in0.0 mm 0.00 in0.0 mm
05:40 AM 40.5°F4.7°C 38.3°F3.5°C 92% Calm Calm -- 30.02 in1016.6 mb 0.00 in0.0 mm 0.00 in0.0 mm 0.00 in0.0 mm
05:45 AM 40.2°F4.6°C 38.0°F3.3°C 92% Calm Calm -- 30.02 in1016.6 mb 0.00 in0.0 mm 0.00 in0.0 mm 0.00 in0.0 mm
05:50 AM 40.1°F4.5°C 38.0°F3.3°C 92% Calm Calm -- 30.02 in1016.6 mb 0.00 in0.0 mm 0.00 in0.0 mm 0.00 in0.0 mm
05:55 AM 40.1°F4.5°C 38.2°F3.4°C 93% Calm Calm -- 30.02 in1016.6 mb 0.00 in0.0 mm 0.00 in0.0 mm 0.00 in0.0 mm
06:00 AM 40.4°F4.7°C 38.5°F3.6°C 93% Calm Calm -- 30.02 in1016.6 mb 0.00 in0.0 mm 0.00 in0.0 mm 0.00 in0.0 mm
06:05 AM 40.4°F4.7°C 38.5°F3.6°C 93% Calm Calm -- 30.02 in1016.6 mb 0.00 in0.0 mm 0.00 in0.0 mm 0.00 in0.0 mm
06:10 AM 40.4°F4.7°C 38.5°F3.6°C 93% Calm Calm -- 30.02 in1016.6 mb 0.00 in0.0 mm 0.00 in0.0 mm 0.00 in0.0 mm
06:15 AM 40.3°F4.6°C 38.4°F3.6°C 93% Calm Calm -- 30.02 in1016.6 mb 0.00 in0.0 mm 0.00 in0.0 mm 0.00 in0.0 mm
06:20 AM 40.1°F4.5°C 37.9°F3.3°C 92% Calm Calm -- 30.03 in1016.9 mb 0.00 in0.0 mm 0.00 in0.0 mm 0.00 in0.0 mm
06:25 AM 39.9°F4.4°C 37.7°F3.2°C 92% Calm Calm -- 30.03 in1016.9 mb 0.00 in0.0 mm 0.00 in0.0 mm 0.00 in0.0 mm
06:30 AM 39.7°F4.3°C 37.6°F3.1°C 92% Calm Calm -- 30.03 in1016.9 mb 0.00 in0.0 mm 0.00 in0.0 mm 0.00 in0.0 mm
06:35 AM 39.5°F4.2°C 37.3°F2.9°C 92% Calm Calm -- 30.03 in1016.9 mb 0.00 in0.0 mm 0.00 in0.0 mm 0.00 in0.0 mm
06:40 AM 39.4°F4.1°C 37.2°F2.9°C 92% Calm Calm -- 30.03 in1016.9 mb 0.00 in0.0 mm 0.00 in0.0 mm 0.00 in0.0 mm
06:45 AM 39.4°F4.1°C 37.5°F3.1°C 93% Calm Calm -- 30.03 in1016.9 mb 0.00 in0.0 mm 0.00 in0.0 mm 0.00 in0.0 mm
06:50 AM 39.4°F4.1°C 37.5°F3.1°C 93% Calm Calm -- 30.04 in1017.3 mb 0.00 in0.0 mm 0.00 in0.0 mm 0.00 in0.0 mm
06:55 AM 39.3°F4.1°C 37.4°F3.0°C 93% Calm Calm -- 30.03 in1016.9 mb 0.00 in0.0 mm 0.00 in0.0 mm 0.00 in0.0 mm
07:00 AM 39.1°F3.9°C 37.2°F2.9°C 93% Calm Calm -- 30.04 in1017.3 mb 0.00 in0.0 mm 0.00 in0.0 mm 0.00 in0.0 mm
07:05 AM 39.0°F3.9°C 37.1°F2.8°C 93% Calm Calm -- 30.04 in1017.3 mb 0.00 in0.0 mm 0.00 in0.0 mm 0.00 in0.0 mm
07:10 AM 39.1°F3.9°C 37.5°F3.1°C 94% Calm Calm 1.0 mph1.6 kmh 30.04 in1017.3 mb 0.00 in0.0 mm 0.00 in0.0 mm 0.00 in0.0 mm
07:15 AM 38.9°F3.8°C 37.3°F2.9°C 94% Calm Calm 1.0 mph1.6 kmh 30.04 in1017.3 mb 0.00 in0.0 mm 0.00 in0.0 mm 0.00 in0.0 mm
07:20 AM 38.8°F3.8°C 37.2°F2.9°C 94% Calm Calm 1.0 mph1.6 kmh 30.04 in1017.3 mb 0.00 in0.0 mm 0.00 in0.0 mm 0.00 in0.0 mm
07:25 AM 38.9°F3.8°C 37.3°F2.9°C 94% Calm Calm 1.0 mph1.6 kmh 30.04 in1017.3 mb 0.00 in0.0 mm 0.00 in0.0 mm 0.00 in0.0 mm
07:30 AM 39.2°F4.0°C 37.6°F3.1°C 94% Calm Calm -- 30.05 in1017.6 mb 0.00 in0.0 mm 0.00 in0.0 mm 0.00 in0.0 mm
07:35 AM 39.6°F4.2°C 38.0°F3.3°C 94% Calm Calm -- 30.05 in1017.6 mb 0.00 in0.0 mm 0.00 in0.0 mm 0.00 in0.0 mm
07:40 AM 39.9°F4.4°C 38.3°F3.5°C 94% Calm Calm -- 30.05 in1017.6 mb 0.00 in0.0 mm 0.00 in0.0 mm 0.00 in0.0 mm
07:45 AM 40.6°F4.8°C 39.0°F3.9°C 94% Calm Calm -- 30.05 in1017.6 mb 0.00 in0.0 mm 0.00 in0.0 mm 0.00 in0.0 mm
07:50 AM 41.9°F5.5°C 40.5°F4.7°C 95% Calm Calm -- 30.05 in1017.6 mb 0.00 in0.0 mm 0.00 in0.0 mm 0.00 in0.0 mm
07:55 AM 42.7°F5.9°C 41.0°F5.0°C 94% Calm Calm -- 30.05 in1017.6 mb 0.00 in0.0 mm 0.00 in0.0 mm 0.00 in0.0 mm
08:00 AM 43.2°F6.2°C 41.3°F5.2°C 93% Calm Calm -- 30.06 in1017.9 mb 0.00 in0.0 mm 0.00 in0.0 mm 0.00 in0.0 mm
08:05 AM 43.0°F6.1°C 40.6°F4.8°C 91% Calm Calm -- 30.06 in1017.9 mb 0.00 in0.0 mm 0.00 in0.0 mm 0.00 in0.0 mm
08:10 AM 43.9°F6.6°C 41.7°F5.4°C 92% Calm Calm -- 30.06 in1017.9 mb 0.00 in0.0 mm 0.00 in0.0 mm 0.00 in0.0 mm
08:15 AM 44.5°F6.9°C 41.7°F5.4°C 90% Calm Calm -- 30.07 in1018.3 mb 0.00 in0.0 mm 0.00 in0.0 mm 0.00 in0.0 mm
08:19 AM 45.3°F7.4°C 42.2°F5.7°C 89% Calm Calm -- 30.07 in1018.3 mb 0.00 in0.0 mm 0.00 in0.0 mm 0.00 in0.0 mm
08:24 AM 45.6°F7.6°C 42.2°F5.7°C 88% Calm Calm -- 30.07 in1018.3 mb 0.00 in0.0 mm 0.00 in0.0 mm 0.00 in0.0 mm
08:29 AM 46.8°F8.2°C 43.4°F6.3°C 88% Calm Calm -- 30.07 in1018.3 mb 0.00 in0.0 mm 0.00 in0.0 mm 0.00 in0.0 mm
08:34 AM 46.9°F8.3°C 42.0°F5.6°C 83% Calm Calm -- 30.07 in1018.3 mb 0.00 in0.0 mm 0.00 in0.0 mm 0.00 in0.0 mm
08:39 AM 47.0°F8.3°C 42.1°F5.6°C 83% Calm Calm -- 30.07 in1018.3 mb 0.00 in0.0 mm 0.00 in0.0 mm 0.00 in0.0 mm
08:44 AM 46.8°F8.2°C 41.9°F5.5°C 83% Calm Calm -- 30.07 in1018.3 mb 0.00 in0.0 mm 0.00 in0.0 mm 0.00 in0.0 mm
08:49 AM 46.2°F7.9°C 41.6°F5.3°C 84% Calm Calm -- 30.07 in1018.3 mb 0.00 in0.0 mm 0.00 in0.0 mm 0.00 in0.0 mm
08:54 AM 46.1°F7.8°C 42.1°F5.6°C 86% Calm Calm -- 30.07 in1018.3 mb 0.00 in0.0 mm 0.00 in0.0 mm 0.00 in0.0 mm
08:59 AM 46.0°F7.8°C 42.0°F5.6°C 86% Calm Calm -- 30.07 in1018.3 mb 0.00 in0.0 mm 0.00 in0.0 mm 0.00 in0.0 mm
09:04 AM 46.1°F7.8°C 42.4°F5.8°C 87% Calm Calm -- 30.07 in1018.3 mb 0.00 in0.0 mm 0.00 in0.0 mm 0.00 in0.0 mm
09:09 AM 46.3°F7.9°C 42.6°F5.9°C 87% Calm Calm -- 30.08 in1018.6 mb 0.00 in0.0 mm 0.00 in0.0 mm 0.00 in0.0 mm
09:14 AM 46.6°F8.1°C 43.2°F6.2°C 88% Calm Calm -- 30.08 in1018.6 mb 0.00 in0.0 mm 0.00 in0.0 mm 0.00 in0.0 mm
09:19 AM 47.0°F8.3°C 43.3°F6.3°C 87% Calm Calm -- 30.08 in1018.6 mb 0.00 in0.0 mm 0.00 in0.0 mm 0.00 in0.0 mm
09:24 AM 47.8°F8.8°C 43.8°F6.6°C 86% Calm Calm -- 30.08 in1018.6 mb 0.00 in0.0 mm 0.00 in0.0 mm 0.00 in0.0 mm
09:29 AM 48.7°F9.3°C 44.4°F6.9°C 85% Calm Calm -- 30.08 in1018.6 mb 0.00 in0.0 mm 0.00 in0.0 mm 0.00 in0.0 mm
09:34 AM 49.5°F9.7°C 44.9°F7.2°C 84% 1.0 mph SE1.6 kmh SE 1.0 mph1.6 kmh 30.08 in1018.6 mb 0.00 in0.0 mm 0.00 in0.0 mm 0.00 in0.0 mm
09:39 AM 50.0°F10.0°C 44.4°F6.9°C 81% 1.0 mph SW1.6 kmh SW 1.0 mph1.6 kmh 30.08 in1018.6 mb 0.00 in0.0 mm 0.00 in0.0 mm 0.00 in0.0 mm
09:44 AM 50.3°F10.2°C 44.7°F7.1°C 81% 1.0 mph SSE1.6 kmh SSE 1.0 mph1.6 kmh 30.08 in1018.6 mb 0.00 in0.0 mm 0.00 in0.0 mm 0.00 in0.0 mm
09:49 AM 51.2°F10.7°C 45.0°F7.2°C 79% 1.1 mph S1.8 kmh S 2.0 mph3.2 kmh 30.09 in1019.0 mb 0.00 in0.0 mm 0.00 in0.0 mm 0.00 in0.0 mm
09:54 AM 51.7°F10.9°C 45.1°F7.3°C 78% 1.0 mph SW1.6 kmh SW 2.0 mph3.2 kmh 30.09 in1019.0 mb 0.00 in0.0 mm 0.00 in0.0 mm 0.00 in0.0 mm
09:59 AM 52.0°F11.1°C 44.7°F7.1°C 76% 1.1 mph SSW1.8 kmh SSW 4.0 mph6.4 kmh 30.09 in1019.0 mb 0.00 in0.0 mm 0.00 in0.0 mm 0.00 in0.0 mm
10:04 AM 52.2°F11.2°C 44.9°F7.2°C 76% 1.0 mph S1.6 kmh S 4.0 mph6.4 kmh 30.09 in1019.0 mb 0.00 in0.0 mm 0.00 in0.0 mm 0.00 in0.0 mm
10:09 AM 52.7°F11.5°C 44.4°F6.9°C 73% 1.1 mph S1.8 kmh S 4.0 mph6.4 kmh 30.09 in1019.0 mb 0.00 in0.0 mm 0.00 in0.0 mm 0.00 in0.0 mm
10:14 AM 53.1°F11.7°C 44.8°F7.1°C 73% 1.5 mph SE2.4 kmh SE 4.0 mph6.4 kmh 30.08 in1018.6 mb 0.00 in0.0 mm 0.00 in0.0 mm 0.00 in0.0 mm
10:19 AM 53.6°F12.0°C 45.3°F7.4°C 73% Calm Calm 3.0 mph4.8 kmh 30.08 in1018.6 mb 0.00 in0.0 mm 0.00 in0.0 mm 0.00 in0.0 mm
10:24 AM 54.0°F12.2°C 44.8°F7.1°C 71% 2.1 mph SE3.4 kmh SE 4.0 mph6.4 kmh 30.09 in1019.0 mb 0.00 in0.0 mm 0.00 in0.0 mm 0.00 in0.0 mm
10:29 AM 53.9°F12.2°C 44.3°F6.8°C 70% 1.5 mph SSE2.4 kmh SSE 4.0 mph6.4 kmh 30.09 in1019.0 mb 0.00 in0.0 mm 0.00 in0.0 mm 0.00 in0.0 mm
10:34 AM 54.4°F12.4°C 44.9°F7.2°C 70% 1.4 mph SSE2.3 kmh SSE 4.0 mph6.4 kmh 30.09 in1019.0 mb 0.00 in0.0 mm 0.00 in0.0 mm 0.00 in0.0 mm
10:39 AM 54.7°F12.6°C 44.8°F7.1°C 69% 1.8 mph SE2.9 kmh SE 4.0 mph6.4 kmh 30.09 in1019.0 mb 0.00 in0.0 mm 0.00 in0.0 mm 0.00 in0.0 mm
10:44 AM 55.0°F12.8°C 44.8°F7.1°C 68% 1.6 mph SE2.6 kmh SE 4.0 mph6.4 kmh 30.08 in1018.6 mb 0.00 in0.0 mm 0.00 in0.0 mm 0.00 in0.0 mm
10:49 AM 55.3°F12.9°C 44.5°F6.9°C 67% 1.7 mph SE2.7 kmh SE 4.0 mph6.4 kmh 30.08 in1018.6 mb 0.00 in0.0 mm 0.00 in0.0 mm 0.00 in0.0 mm
10:54 AM 55.6°F13.1°C 45.2°F7.3°C 68% 1.4 mph SE2.3 kmh SE 4.0 mph6.4 kmh 30.08 in1018.6 mb 0.00 in0.0 mm 0.00 in0.0 mm 0.00 in0.0 mm
10:59 AM 55.7°F13.2°C 45.0°F7.2°C 67% 1.6 mph SSE2.6 kmh SSE 4.0 mph6.4 kmh 30.08 in1018.6 mb 0.00 in0.0 mm 0.00 in0.0 mm 0.00 in0.0 mm
11:04 AM 56.0°F13.3°C 45.7°F7.6°C 68% 2.7 mph SW4.3 kmh SW 5.0 mph8.0 kmh 30.09 in1019.0 mb 0.00 in0.0 mm 0.00 in0.0 mm 0.00 in0.0 mm
11:09 AM 56.3°F13.5°C 46.0°F7.8°C 68% 2.2 mph SW3.5 kmh SW 5.0 mph8.0 kmh 30.09 in1019.0 mb 0.00 in0.0 mm 0.00 in0.0 mm 0.00 in0.0 mm
11:14 AM 56.6°F13.7°C 45.9°F7.7°C 67% 1.7 mph SSW2.7 kmh SSW 6.0 mph9.7 kmh 30.09 in1019.0 mb 0.00 in0.0 mm 0.00 in0.0 mm 0.00 in0.0 mm
11:19 AM 56.4°F13.6°C 45.7°F7.6°C 67% 1.8 mph S2.9 kmh S 8.0 mph12.9 kmh 30.09 in1019.0 mb 0.00 in0.0 mm 0.00 in0.0 mm 0.00 in0.0 mm
11:24 AM 57.1°F13.9°C 45.6°F7.6°C 65% 2.2 mph SW3.5 kmh SW 8.0 mph12.9 kmh 30.08 in1018.6 mb 0.00 in0.0 mm 0.00 in0.0 mm 0.00 in0.0 mm
11:29 AM 57.2°F14.0°C 45.3°F7.4°C 64% 2.2 mph SSE3.5 kmh SSE 8.0 mph12.9 kmh 30.09 in1019.0 mb 0.00 in0.0 mm 0.00 in0.0 mm 0.00 in0.0 mm
11:34 AM 57.8°F14.3°C 45.8°F7.7°C 64% 1.8 mph SW2.9 kmh SW 8.0 mph12.9 kmh 30.08 in1018.6 mb 0.00 in0.0 mm 0.00 in0.0 mm 0.00 in0.0 mm
11:39 AM 58.2°F14.6°C 46.1°F7.8°C 64% 1.4 mph S2.3 kmh S 8.0 mph12.9 kmh 30.09 in1019.0 mb 0.00 in0.0 mm 0.00 in0.0 mm 0.00 in0.0 mm
11:44 AM 58.3°F14.6°C 45.9°F7.7°C 63% 1.6 mph SE2.6 kmh SE 7.0 mph11.3 kmh 30.08 in1018.6 mb 0.00 in0.0 mm 0.00 in0.0 mm 0.00 in0.0 mm
11:49 AM 58.6°F14.8°C 47.0°F8.3°C 65% 1.0 mph SSW1.6 kmh SSW 6.0 mph9.7 kmh 30.08 in1018.6 mb 0.00 in0.0 mm 0.00 in0.0 mm 0.00 in0.0 mm
11:54 AM 59.0°F15.0°C 46.8°F8.2°C 64% 1.8 mph SSE2.9 kmh SSE 6.0 mph9.7 kmh 30.08 in1018.6 mb 0.00 in0.0 mm 0.00 in0.0 mm 0.00 in0.0 mm
11:59 AM 59.3°F15.2°C 47.1°F8.4°C 64% 1.2 mph SSE1.9 kmh SSE 6.0 mph9.7 kmh 30.08 in1018.6 mb 0.00 in0.0 mm 0.00 in0.0 mm 0.00 in0.0 mm
12:04 PM 59.7°F15.4°C 47.5°F8.6°C 64% 1.4 mph SSE2.3 kmh SSE 5.0 mph8.0 kmh 30.08 in1018.6 mb 0.00 in0.0 mm 0.00 in0.0 mm 0.00 in0.0 mm
12:09 PM 60.0°F15.6°C 46.9°F8.3°C 62% 1.6 mph S2.6 kmh S 5.0 mph8.0 kmh 30.07 in1018.3 mb 0.00 in0.0 mm 0.00 in0.0 mm 0.00 in0.0 mm
12:14 PM 60.1°F15.6°C 46.2°F7.9°C 60% 2.2 mph SW3.5 kmh SW 6.0 mph9.7 kmh 30.07 in1018.3 mb 0.00 in0.0 mm 0.00 in0.0 mm 0.00 in0.0 mm
12:19 PM 60.2°F15.7°C 46.7°F8.2°C 61% 2.0 mph SSE3.2 kmh SSE 6.0 mph9.7 kmh 30.07 in1018.3 mb 0.00 in0.0 mm 0.00 in0.0 mm 0.00 in0.0 mm
12:24 PM 60.2°F15.7°C 46.7°F8.2°C 61% 2.4 mph SE3.9 kmh SE 6.0 mph9.7 kmh 30.07 in1018.3 mb 0.00 in0.0 mm 0.00 in0.0 mm 0.00 in0.0 mm
12:29 PM 60.2°F15.7°C 47.3°F8.5°C 62% 4.1 mph SW6.6 kmh SW 9.0 mph14.5 kmh 30.06 in1017.9 mb 0.00 in0.0 mm 0.00 in0.0 mm 0.00 in0.0 mm
12:34 PM 60.2°F15.7°C 47.7°F8.7°C 63% 1.7 mph S2.7 kmh S 9.0 mph14.5 kmh 30.06 in1017.9 mb 0.00 in0.0 mm 0.00 in0.0 mm 0.00 in0.0 mm
12:39 PM 60.6°F15.9°C 48.1°F8.9°C 63% 3.1 mph WSW5.0 kmh WSW 11.0 mph17.7 kmh 30.06 in1017.9 mb 0.00 in0.0 mm 0.00 in0.0 mm 0.00 in0.0 mm
12:44 PM 60.9°F16.1°C 48.4°F9.1°C 63% 3.1 mph S5.0 kmh S 11.0 mph17.7 kmh 30.06 in1017.9 mb 0.00 in0.0 mm 0.00 in0.0 mm 0.00 in0.0 mm
12:49 PM 61.1°F16.2°C 48.6°F9.2°C 63% 2.5 mph SSE4.0 kmh SSE 11.0 mph17.7 kmh 30.06 in1017.9 mb 0.00 in0.0 mm 0.00 in0.0 mm 0.00 in0.0 mm
12:54 PM 60.9°F16.1°C 49.2°F9.6°C 65% 4.5 mph WSW7.2 kmh WSW 11.0 mph17.7 kmh 30.06 in1017.9 mb 0.00 in0.0 mm 0.00 in0.0 mm 0.00 in0.0 mm
12:59 PM 60.7°F15.9°C 49.4°F9.7°C 66% 5.3 mph SW8.5 kmh SW 12.0 mph19.3 kmh 30.05 in1017.6 mb 0.00 in0.0 mm 0.00 in0.0 mm 0.00 in0.0 mm
01:04 PM 60.7°F15.9°C 49.4°F9.7°C 66% 4.4 mph SW7.1 kmh SW 13.0 mph20.9 kmh 30.05 in1017.6 mb 0.00 in0.0 mm 0.00 in0.0 mm 0.00 in0.0 mm
01:09 PM 60.7°F15.9°C 49.4°F9.7°C 66% 4.4 mph SSW7.1 kmh SSW 13.0 mph20.9 kmh 30.05 in1017.6 mb 0.00 in0.0 mm 0.00 in0.0 mm 0.00 in0.0 mm
01:14 PM 60.8°F16.0°C 49.5°F9.7°C 66% 6.4 mph SW10.3 kmh SW 13.0 mph20.9 kmh 30.05 in1017.6 mb 0.00 in0.0 mm 0.00 in0.0 mm 0.00 in0.0 mm
01:18 PM 61.0°F16.1°C 49.6°F9.8°C 66% 1.9 mph SW3.1 kmh SW 13.0 mph20.9 kmh 30.05 in1017.6 mb 0.00 in0.0 mm 0.00 in0.0 mm 0.00 in0.0 mm
01:23 PM 61.2°F16.2°C 48.9°F9.4°C 64% 4.3 mph SW6.9 kmh SW 13.0 mph20.9 kmh 30.05 in1017.6 mb 0.00 in0.0 mm 0.00 in0.0 mm 0.00 in0.0 mm
01:28 PM 61.7°F16.5°C 49.0°F9.4°C 63% 3.8 mph WSW6.1 kmh WSW 13.0 mph20.9 kmh 30.04 in1017.3 mb 0.00 in0.0 mm 0.00 in0.0 mm 0.00 in0.0 mm
01:33 PM 61.7°F16.5°C 49.4°F9.7°C 64% 2.5 mph SW4.0 kmh SW 12.0 mph19.3 kmh 30.04 in1017.3 mb 0.00 in0.0 mm 0.00 in0.0 mm 0.00 in0.0 mm
01:38 PM 62.1°F16.7°C 49.8°F9.9°C 64% 2.9 mph SW4.7 kmh SW 12.0 mph19.3 kmh 30.04 in1017.3 mb 0.00 in0.0 mm 0.00 in0.0 mm 0.00 in0.0 mm
01:43 PM 62.1°F16.7°C 49.8°F9.9°C 64% 2.1 mph SSW3.4 kmh SSW 8.0 mph12.9 kmh 30.04 in1017.3 mb 0.00 in0.0 mm 0.00 in0.0 mm 0.00 in0.0 mm
01:48 PM 62.0°F16.7°C 49.4°F9.7°C 63% 4.7 mph SW7.6 kmh SW 8.0 mph12.9 kmh 30.04 in1017.3 mb 0.00 in0.0 mm 0.00 in0.0 mm 0.00 in0.0 mm
01:53 PM 62.2°F16.8°C 49.2°F9.6°C 62% 3.2 mph SSW5.1 kmh SSW 9.0 mph14.5 kmh 30.04 in1017.3 mb 0.00 in0.0 mm 0.00 in0.0 mm 0.00 in0.0 mm
01:58 PM 62.1°F16.7°C 49.5°F9.7°C 63% 1.4 mph S2.3 kmh S 9.0 mph14.5 kmh 30.04 in1017.3 mb 0.00 in0.0 mm 0.00 in0.0 mm 0.00 in0.0 mm
02:03 PM 62.2°F16.8°C 49.2°F9.6°C 62% 1.8 mph SW2.9 kmh SW 9.0 mph14.5 kmh 30.04 in1017.3 mb 0.00 in0.0 mm 0.00 in0.0 mm 0.00 in0.0 mm
02:08 PM 62.7°F17.1°C 49.5°F9.7°C 62% 1.5 mph SW2.4 kmh SW 9.0 mph14.5 kmh 30.04 in1017.3 mb 0.00 in0.0 mm 0.00 in0.0 mm 0.00 in0.0 mm
02:13 PM 63.1°F17.3°C 49.6°F9.8°C 61% 2.3 mph SSW3.7 kmh SSW 8.0 mph12.9 kmh 30.03 in1016.9 mb 0.00 in0.0 mm 0.00 in0.0 mm 0.00 in0.0 mm
02:18 PM 63.1°F17.3°C 49.6°F9.8°C 61% 2.9 mph S4.7 kmh S 9.0 mph14.5 kmh 30.03 in1016.9 mb 0.00 in0.0 mm 0.00 in0.0 mm 0.00 in0.0 mm
02:23 PM 63.1°F17.3°C 50.0°F10.0°C 62% 1.3 mph SSE2.1 kmh SSE 9.0 mph14.5 kmh 30.02 in1016.6 mb 0.00 in0.0 mm 0.00 in0.0 mm 0.00 in0.0 mm
02:28 PM 63.3°F17.4°C 50.2°F10.1°C 62% 2.2 mph SSE3.5 kmh SSE 9.0 mph14.5 kmh 30.02 in1016.6 mb 0.00 in0.0 mm 0.00 in0.0 mm 0.00 in0.0 mm
02:33 PM 63.4°F17.4°C 50.3°F10.2°C 62% 2.1 mph SSW3.4 kmh SSW 9.0 mph14.5 kmh 30.02 in1016.6 mb 0.00 in0.0 mm 0.00 in0.0 mm 0.00 in0.0 mm
02:38 PM 63.6°F17.6°C 50.1°F10.1°C 61% 2.2 mph S3.5 kmh S 6.0 mph9.7 kmh 30.02 in1016.6 mb 0.00 in0.0 mm 0.00 in0.0 mm 0.00 in0.0 mm
02:43 PM 63.5°F17.5°C 50.0°F10.0°C 61% 3.7 mph SW6.0 kmh SW 8.0 mph12.9 kmh 30.02 in1016.6 mb 0.00 in0.0 mm 0.00 in0.0 mm 0.00 in0.0 mm
02:48 PM 63.3°F17.4°C 50.2°F10.1°C 62% 1.8 mph WSW2.9 kmh WSW 8.0 mph12.9 kmh 30.02 in1016.6 mb 0.00 in0.0 mm 0.00 in0.0 mm 0.00 in0.0 mm
02:53 PM 63.6°F17.6°C 50.5°F10.3°C 62% 1.8 mph SW2.9 kmh SW 8.0 mph12.9 kmh 30.01 in1016.3 mb 0.00 in0.0 mm 0.00 in0.0 mm 0.00 in0.0 mm
02:58 PM 63.9°F17.7°C 50.3°F10.2°C 61% 1.7 mph SSW2.7 kmh SSW 8.0 mph12.9 kmh 30.01 in1016.3 mb 0.00 in0.0 mm 0.00 in0.0 mm 0.00 in0.0 mm
03:03 PM 64.3°F17.9°C 50.7°F10.4°C 61% 1.3 mph ESE2.1 kmh ESE 6.0 mph9.7 kmh 30.01 in1016.3 mb 0.00 in0.0 mm 0.00 in0.0 mm 0.00 in0.0 mm
03:08 PM 64.5°F18.1°C 50.5°F10.3°C 60% 1.0 mph S1.6 kmh S 5.0 mph8.0 kmh 30.01 in1016.3 mb 0.00 in0.0 mm 0.00 in0.0 mm 0.00 in0.0 mm
03:13 PM 64.5°F18.1°C 50.9°F10.5°C 61% 1.8 mph SE2.9 kmh SE 7.0 mph11.3 kmh 30.01 in1016.3 mb 0.00 in0.0 mm 0.00 in0.0 mm 0.00 in0.0 mm
03:18 PM 64.6°F18.1°C 50.5°F10.3°C 60% 1.8 mph SE2.9 kmh SE 7.0 mph11.3 kmh 30.01 in1016.3 mb 0.00 in0.0 mm 0.00 in0.0 mm 0.00 in0.0 mm
03:23 PM 64.5°F18.1°C 50.9°F10.5°C 61% 2.6 mph SE4.2 kmh SE 7.0 mph11.3 kmh 30.01 in1016.3 mb 0.00 in0.0 mm 0.00 in0.0 mm 0.00 in0.0 mm
03:28 PM 64.5°F18.1°C 50.5°F10.3°C 60% 2.1 mph SSE3.4 kmh SSE 7.0 mph11.3 kmh 30.01 in1016.3 mb 0.00 in0.0 mm 0.00 in0.0 mm 0.00 in0.0 mm
03:33 PM 64.4°F18.0°C 50.8°F10.4°C 61% 1.1 mph SE1.8 kmh SE 6.0 mph9.7 kmh 30.01 in1016.3 mb 0.00 in0.0 mm 0.00 in0.0 mm 0.00 in0.0 mm
03:38 PM 64.4°F18.0°C 50.8°F10.4°C 61% 2.8 mph SE4.5 kmh SE 6.0 mph9.7 kmh 30.01 in1016.3 mb 0.00 in0.0 mm 0.00 in0.0 mm 0.00 in0.0 mm
03:43 PM 64.3°F17.9°C 51.2°F10.7°C 62% 1.9 mph SE3.1 kmh SE 6.0 mph9.7 kmh 30.01 in1016.3 mb 0.00 in0.0 mm 0.00 in0.0 mm 0.00 in0.0 mm
03:48 PM 64.0°F17.8°C 50.9°F10.5°C 62% 3.2 mph SE5.1 kmh SE 6.0 mph9.7 kmh 30.00 in1015.9 mb 0.00 in0.0 mm 0.00 in0.0 mm 0.00 in0.0 mm
03:53 PM 64.5°F18.1°C 50.9°F10.5°C 61% 1.2 mph S1.9 kmh S 6.0 mph9.7 kmh 30.00 in1015.9 mb 0.00 in0.0 mm 0.00 in0.0 mm 0.00 in0.0 mm
03:58 PM 64.4°F18.0°C 50.8°F10.4°C 61% 3.1 mph SE5.0 kmh SE 8.0 mph12.9 kmh 30.00 in1015.9 mb 0.00 in0.0 mm 0.00 in0.0 mm 0.00 in0.0 mm
04:03 PM 64.2°F17.9°C 51.1°F10.6°C 62% 3.1 mph SE5.0 kmh SE 8.0 mph12.9 kmh 30.01 in1016.3 mb 0.00 in0.0 mm 0.00 in0.0 mm 0.00 in0.0 mm
04:08 PM 64.8°F18.2°C 51.2°F10.7°C 61% 1.8 mph SSE2.9 kmh SSE 8.0 mph12.9 kmh 30.01 in1016.3 mb 0.00 in0.0 mm 0.00 in0.0 mm 0.00 in0.0 mm
04:13 PM 64.9°F18.3°C 50.4°F10.2°C 59% 2.1 mph SSE3.4 kmh SSE 8.0 mph12.9 kmh 30.01 in1016.3 mb 0.00 in0.0 mm 0.00 in0.0 mm 0.00 in0.0 mm
04:18 PM 65.0°F18.3°C 50.5°F10.3°C 59% 1.9 mph SW3.1 kmh SW 6.0 mph9.7 kmh 30.02 in1016.6 mb 0.00 in0.0 mm 0.00 in0.0 mm 0.00 in0.0 mm
04:23 PM 65.1°F18.4°C 51.0°F10.6°C 60% 1.8 mph SW2.9 kmh SW 5.0 mph8.0 kmh 30.02 in1016.6 mb 0.00 in0.0 mm 0.00 in0.0 mm 0.00 in0.0 mm
04:28 PM 65.0°F18.3°C 50.5°F10.3°C 59% 1.1 mph SE1.8 kmh SE 5.0 mph8.0 kmh 30.02 in1016.6 mb 0.00 in0.0 mm 0.00 in0.0 mm 0.00 in0.0 mm
04:33 PM 64.7°F18.2°C 50.2°F10.1°C 59% 1.7 mph S2.7 kmh S 5.0 mph8.0 kmh 30.03 in1016.9 mb 0.00 in0.0 mm 0.00 in0.0 mm 0.00 in0.0 mm
04:38 PM 64.3°F17.9°C 50.3°F10.2°C 60% 1.7 mph SE2.7 kmh SE 5.0 mph8.0 kmh 30.03 in1016.9 mb 0.00 in0.0 mm 0.00 in0.0 mm 0.00 in0.0 mm
04:43 PM 63.9°F17.7°C 49.9°F9.9°C 60% 1.4 mph S2.3 kmh S 5.0 mph8.0 kmh 30.02 in1016.6 mb 0.00 in0.0 mm 0.00 in0.0 mm 0.00 in0.0 mm
04:48 PM 63.9°F17.7°C 49.9°F9.9°C 60% 1.3 mph SSE2.1 kmh SSE 5.0 mph8.0 kmh 30.02 in1016.6 mb 0.00 in0.0 mm 0.00 in0.0 mm 0.00 in0.0 mm
04:53 PM 63.9°F17.7°C 49.9°F9.9°C 60% 1.0 mph SE1.6 kmh SE 4.0 mph6.4 kmh 30.02 in1016.6 mb 0.00 in0.0 mm 0.00 in0.0 mm 0.00 in0.0 mm
04:58 PM 63.7°F17.6°C 49.7°F9.8°C 60% 1.0 mph SE1.6 kmh SE 3.0 mph4.8 kmh 30.02 in1016.6 mb 0.00 in0.0 mm 0.00 in0.0 mm 0.00 in0.0 mm
05:03 PM 63.4°F17.4°C 49.9°F9.9°C 61% 1.5 mph SE2.4 kmh SE 3.0 mph4.8 kmh 30.03 in1016.9 mb 0.00 in0.0 mm 0.00 in0.0 mm 0.00 in0.0 mm
05:08 PM 63.1°F17.3°C 50.0°F10.0°C 62% Calm Calm 3.0 mph4.8 kmh 30.03 in1016.9 mb 0.00 in0.0 mm 0.00 in0.0 mm 0.00 in0.0 mm
05:13 PM 62.8°F17.1°C 50.2°F10.1°C 63% 1.6 mph SE2.6 kmh SE 3.0 mph4.8 kmh 30.03 in1016.9 mb 0.00 in0.0 mm 0.00 in0.0 mm 0.00 in0.0 mm
05:18 PM 62.2°F16.8°C 49.6°F9.8°C 63% 1.0 mph SSE1.6 kmh SSE 3.0 mph4.8 kmh 30.03 in1016.9 mb 0.00 in0.0 mm 0.00 in0.0 mm 0.00 in0.0 mm
05:23 PM 61.7°F16.5°C 49.6°F9.8°C 64% 1.4 mph SE2.3 kmh SE 3.0 mph4.8 kmh 30.02 in1016.6 mb 0.00 in0.0 mm 0.00 in0.0 mm 0.00 in0.0 mm
05:28 PM 61.2°F16.2°C 49.5°F9.7°C 65% 1.3 mph SSE2.1 kmh SSE 3.0 mph4.8 kmh 30.03 in1016.9 mb 0.00 in0.0 mm 0.00 in0.0 mm 0.00 in0.0 mm
05:34 PM 60.9°F16.1°C 49.2°F9.6°C 65% 1.2 mph SE1.9 kmh SE 3.0 mph4.8 kmh 30.03 in1016.9 mb 0.00 in0.0 mm 0.00 in0.0 mm 0.00 in0.0 mm
05:38 PM 60.6°F15.9°C 49.3°F9.6°C 66% 1.2 mph SSE1.9 kmh SSE 4.0 mph6.4 kmh 30.03 in1016.9 mb 0.00 in0.0 mm 0.00 in0.0 mm 0.00 in0.0 mm
05:43 PM 60.4°F15.8°C 49.1°F9.5°C 66% 1.2 mph SE1.9 kmh SE 4.0 mph6.4 kmh 30.03 in1016.9 mb 0.00 in0.0 mm 0.00 in0.0 mm 0.00 in0.0 mm
05:49 PM 60.1°F15.6°C 49.3°F9.6°C 67% Calm Calm 4.0 mph6.4 kmh 30.03 in1016.9 mb 0.00 in0.0 mm 0.00 in0.0 mm 0.00 in0.0 mm
05:54 PM 59.8°F15.4°C 48.8°F9.3°C 67% 1.0 mph SSE1.6 kmh SSE 4.0 mph6.4 kmh 30.03 in1016.9 mb 0.00 in0.0 mm 0.00 in0.0 mm 0.00 in0.0 mm
05:59 PM 59.7°F15.4°C 48.7°F9.3°C 67% 1.4 mph SE2.3 kmh SE 4.0 mph6.4 kmh 30.03 in1016.9 mb 0.00 in0.0 mm 0.00 in0.0 mm 0.00 in0.0 mm
06:04 PM 59.6°F15.3°C 48.6°F9.2°C 67% 1.0 mph SE1.6 kmh SE 4.0 mph6.4 kmh 30.04 in1017.3 mb 0.00 in0.0 mm 0.00 in0.0 mm 0.00 in0.0 mm
06:09 PM 59.5°F15.3°C 48.7°F9.3°C 67% 1.5 mph SE2.4 kmh SE 4.0 mph6.4 kmh 30.04 in1017.3 mb 0.00 in0.0 mm 0.00 in0.0 mm 0.00 in0.0 mm
06:14 PM 59.3°F15.2°C 48.5°F9.2°C 67% 1.2 mph SE1.9 kmh SE 4.0 mph6.4 kmh 30.04 in1017.3 mb 0.00 in0.0 mm 0.00 in0.0 mm 0.00 in0.0 mm
06:19 PM 59.3°F15.2°C 48.5°F9.2°C 67% 1.4 mph SE2.3 kmh SE 4.0 mph6.4 kmh 30.04 in1017.3 mb 0.00 in0.0 mm 0.00 in0.0 mm 0.00 in0.0 mm
06:24 PM 59.1°F15.1°C 48.7°F9.3°C 68% 1.3 mph SE2.1 kmh SE 4.0 mph6.4 kmh 30.04 in1017.3 mb 0.00 in0.0 mm 0.00 in0.0 mm 0.00 in0.0 mm
06:29 PM 59.1°F15.1°C 48.7°F9.3°C 68% 1.1 mph SE1.8 kmh SE 4.0 mph6.4 kmh 30.04 in1017.3 mb 0.00 in0.0 mm 0.00 in0.0 mm 0.00 in0.0 mm
06:34 PM 59.0°F15.0°C 48.6°F9.2°C 68% 1.4 mph SE2.3 kmh SE 4.0 mph6.4 kmh 30.05 in1017.6 mb 0.00 in0.0 mm 0.00 in0.0 mm 0.00 in0.0 mm
06:39 PM 58.9°F14.9°C 48.5°F9.2°C 68% 1.7 mph SE2.7 kmh SE 4.0 mph6.4 kmh 30.05 in1017.6 mb 0.00 in0.0 mm 0.00 in0.0 mm 0.00 in0.0 mm
06:44 PM 58.8°F14.9°C 48.4°F9.1°C 68% 1.4 mph SE2.3 kmh SE 4.0 mph6.4 kmh 30.05 in1017.6 mb 0.00 in0.0 mm 0.00 in0.0 mm 0.00 in0.0 mm
06:49 PM 58.8°F14.9°C 48.4°F9.1°C 68% 1.4 mph SE2.3 kmh SE 4.0 mph6.4 kmh 30.05 in1017.6 mb 0.00 in0.0 mm 0.00 in0.0 mm 0.00 in0.0 mm
06:54 PM 58.7°F14.8°C 48.3°F9.1°C 68% 1.1 mph SE1.8 kmh SE 4.0 mph6.4 kmh 30.05 in1017.6 mb 0.00 in0.0 mm 0.00 in0.0 mm 0.00 in0.0 mm
06:59 PM 58.5°F14.7°C 48.4°F9.1°C 69% 2.1 mph SE3.4 kmh SE 4.0 mph6.4 kmh 30.05 in1017.6 mb 0.00 in0.0 mm 0.00 in0.0 mm 0.00 in0.0 mm
07:04 PM 58.4°F14.7°C 48.4°F9.1°C 69% 2.5 mph SE4.0 kmh SE 4.0 mph6.4 kmh 30.04 in1017.3 mb 0.00 in0.0 mm 0.00 in0.0 mm 0.00 in0.0 mm
07:09 PM 58.2°F14.6°C 48.2°F9.0°C 69% 2.3 mph SE3.7 kmh SE 4.0 mph6.4 kmh 30.04 in1017.3 mb 0.00 in0.0 mm 0.00 in0.0 mm 0.00 in0.0 mm
07:14 PM 58.0°F14.4°C 48.4°F9.1°C 70% 2.4 mph SE3.9 kmh SE 5.0 mph8.0 kmh 30.05 in1017.6 mb 0.00 in0.0 mm 0.00 in0.0 mm 0.00 in0.0 mm
07:17 PM 58.0°F14.4°C 48.4°F9.1°C 70% 2.2 mph ESE3.5 kmh ESE 6.0 mph9.7 kmh 30.05 in1017.6 mb 0.00 in0.0 mm 0.00 in0.0 mm 0.00 in0.0 mm
07:22 PM 57.9°F14.4°C 48.3°F9.1°C 70% 2.2 mph SE3.5 kmh SE 6.0 mph9.7 kmh 30.05 in1017.6 mb 0.00 in0.0 mm 0.00 in0.0 mm 0.00 in0.0 mm
07:27 PM 57.9°F14.4°C 48.3°F9.1°C 70% 2.0 mph SE3.2 kmh SE 6.0 mph9.7 kmh 30.05 in1017.6 mb 0.00 in0.0 mm 0.00 in0.0 mm 0.00 in0.0 mm
07:32 PM 57.8°F14.3°C 48.1°F8.9°C 70% 1.5 mph SE2.4 kmh SE 6.0 mph9.7 kmh 30.05 in1017.6 mb 0.00 in0.0 mm 0.00 in0.0 mm 0.00 in0.0 mm
07:37 PM 57.6°F14.2°C 48.4°F9.1°C 71% 2.6 mph SE4.2 kmh SE 4.0 mph6.4 kmh 30.05 in1017.6 mb 0.00 in0.0 mm 0.00 in0.0 mm 0.00 in0.0 mm
07:42 PM 57.4°F14.1°C 48.2°F9.0°C 71% 2.4 mph SE3.9 kmh SE 5.0 mph8.0 kmh 30.05 in1017.6 mb 0.00 in0.0 mm 0.00 in0.0 mm 0.00 in0.0 mm
07:47 PM 57.3°F14.1°C 48.1°F8.9°C 71% 1.3 mph SSE2.1 kmh SSE 5.0 mph8.0 kmh 30.06 in1017.9 mb 0.00 in0.0 mm 0.00 in0.0 mm 0.00 in0.0 mm
07:52 PM 57.1°F13.9°C 48.3°F9.1°C 72% 1.3 mph SE2.1 kmh SE 5.0 mph8.0 kmh 30.06 in1017.9 mb 0.00 in0.0 mm 0.00 in0.0 mm 0.00 in0.0 mm
07:57 PM 57.0°F13.9°C 48.1°F8.9°C 72% 1.6 mph SE2.6 kmh SE 5.0 mph8.0 kmh 30.06 in1017.9 mb 0.00 in0.0 mm 0.00 in0.0 mm 0.00 in0.0 mm
08:02 PM 57.0°F13.9°C 48.2°F9.0°C 72% 1.8 mph SE2.9 kmh SE 4.0 mph6.4 kmh 30.06 in1017.9 mb 0.00 in0.0 mm 0.00 in0.0 mm 0.00 in0.0 mm
08:07 PM 56.9°F13.8°C 48.1°F8.9°C 72% 1.6 mph SE2.6 kmh SE 4.0 mph6.4 kmh 30.07 in1018.3 mb 0.00 in0.0 mm 0.00 in0.0 mm 0.00 in0.0 mm
08:12 PM 57.0°F13.9°C 48.2°F9.0°C 72% 1.2 mph SE1.9 kmh SE 4.0 mph6.4 kmh 30.07 in1018.3 mb 0.00 in0.0 mm 0.00 in0.0 mm 0.00 in0.0 mm
08:17 PM 56.9°F13.8°C 48.4°F9.1°C 73% 1.8 mph SE2.9 kmh SE 4.0 mph6.4 kmh 30.07 in1018.3 mb 0.00 in0.0 mm 0.00 in0.0 mm 0.00 in0.0 mm
08:23 PM 57.0°F13.9°C 48.5°F9.2°C 73% 1.1 mph SSE1.8 kmh SSE 4.0 mph6.4 kmh 30.07 in1018.3 mb 0.00 in0.0 mm 0.00 in0.0 mm 0.00 in0.0 mm
08:27 PM 57.1°F13.9°C 48.6°F9.2°C 73% 1.2 mph SE1.9 kmh SE 4.0 mph6.4 kmh 30.07 in1018.3 mb 0.00 in0.0 mm 0.00 in0.0 mm 0.00 in0.0 mm
08:33 PM 57.0°F13.9°C 48.4°F9.1°C 73% 1.3 mph SE2.1 kmh SE 4.0 mph6.4 kmh 30.07 in1018.3 mb 0.00 in0.0 mm 0.00 in0.0 mm 0.00 in0.0 mm
08:38 PM 57.1°F13.9°C 48.5°F9.2°C 73% 1.9 mph SE3.1 kmh SE 4.0 mph6.4 kmh 30.06 in1017.9 mb 0.00 in0.0 mm 0.00 in0.0 mm 0.00 in0.0 mm
08:42 PM 57.2°F14.0°C 48.6°F9.2°C 73% 2.9 mph SE4.7 kmh SE 7.0 mph11.3 kmh 30.05 in1017.6 mb 0.00 in0.0 mm 0.00 in0.0 mm 0.00 in0.0 mm
08:48 PM 57.1°F13.9°C 48.5°F9.2°C 73% 3.1 mph SE5.0 kmh SE 7.0 mph11.3 kmh 30.05 in1017.6 mb 0.00 in0.0 mm 0.00 in0.0 mm 0.00 in0.0 mm
08:53 PM 57.2°F14.0°C 48.6°F9.2°C 73% 2.8 mph SE4.5 kmh SE 8.0 mph12.9 kmh 30.05 in1017.6 mb 0.00 in0.0 mm 0.00 in0.0 mm 0.00 in0.0 mm
08:58 PM 57.2°F14.0°C 48.7°F9.3°C 73% 3.4 mph SE5.5 kmh SE 10.0 mph16.1 kmh 30.05 in1017.6 mb 0.00 in0.0 mm 0.00 in0.0 mm 0.00 in0.0 mm
09:03 PM 57.3°F14.1°C 48.8°F9.3°C 73% 2.4 mph SE3.9 kmh SE 10.0 mph16.1 kmh 30.05 in1017.6 mb 0.00 in0.0 mm 0.00 in0.0 mm 0.00 in0.0 mm
09:08 PM 57.2°F14.0°C 48.7°F9.3°C 73% 1.8 mph SSE2.9 kmh SSE 10.0 mph16.1 kmh 30.05 in1017.6 mb 0.00 in0.0 mm 0.00 in0.0 mm 0.00 in0.0 mm
09:13 PM 57.3°F14.1°C 49.2°F9.6°C 74% 1.8 mph SE2.9 kmh SE 10.0 mph16.1 kmh 30.06 in1017.9 mb 0.00 in0.0 mm 0.00 in0.0 mm 0.00 in0.0 mm
09:18 PM 57.2°F14.0°C 49.0°F9.4°C 74% 2.6 mph SSE4.2 kmh SSE 6.0 mph9.7 kmh 30.06 in1017.9 mb 0.00 in0.0 mm 0.00 in0.0 mm 0.00 in0.0 mm
09:23 PM 57.1°F13.9°C 49.0°F9.4°C 74% 1.5 mph S2.4 kmh S 5.0 mph8.0 kmh 30.05 in1017.6 mb 0.00 in0.0 mm 0.00 in0.0 mm 0.00 in0.0 mm
09:28 PM 56.9°F13.8°C 49.2°F9.6°C 75% 2.1 mph SE3.4 kmh SE 5.0 mph8.0 kmh 30.06 in1017.9 mb 0.00 in0.0 mm 0.00 in0.0 mm 0.00 in0.0 mm
09:33 PM 56.7°F13.7°C 49.0°F9.4°C 75% 1.0 mph SE1.6 kmh SE 5.0 mph8.0 kmh 30.05 in1017.6 mb 0.00 in0.0 mm 0.00 in0.0 mm 0.00 in0.0 mm
09:38 PM 56.5°F13.6°C 49.1°F9.5°C 76% 2.1 mph SSE3.4 kmh SSE 5.0 mph8.0 kmh 30.05 in1017.6 mb 0.00 in0.0 mm 0.00 in0.0 mm 0.00 in0.0 mm
09:43 PM 56.4°F13.6°C 48.9°F9.4°C 76% 1.8 mph SE2.9 kmh SE 5.0 mph8.0 kmh 30.05 in1017.6 mb 0.00 in0.0 mm 0.00 in0.0 mm 0.00 in0.0 mm
09:48 PM 56.3°F13.5°C 48.9°F9.4°C 76% 1.5 mph SSE2.4 kmh SSE 5.0 mph8.0 kmh 30.05 in1017.6 mb 0.00 in0.0 mm 0.00 in0.0 mm 0.00 in0.0 mm
09:53 PM 56.2°F13.4°C 49.2°F9.6°C 77% 1.1 mph SSE1.8 kmh SSE 6.0 mph9.7 kmh 30.05 in1017.6 mb 0.00 in0.0 mm 0.00 in0.0 mm 0.00 in0.0 mm
09:58 PM 56.1°F13.4°C 49.1°F9.5°C 77% 2.2 mph S3.5 kmh S 6.0 mph9.7 kmh 30.06 in1017.9 mb 0.00 in0.0 mm 0.00 in0.0 mm 0.00 in0.0 mm
10:03 PM 56.1°F13.4°C 49.1°F9.5°C 77% 1.6 mph S2.6 kmh S 6.0 mph9.7 kmh 30.06 in1017.9 mb 0.00 in0.0 mm 0.00 in0.0 mm 0.00 in0.0 mm
10:08 PM 56.1°F13.4°C 49.1°F9.5°C 77% 1.3 mph SSE2.1 kmh SSE 5.0 mph8.0 kmh 30.06 in1017.9 mb 0.00 in0.0 mm 0.00 in0.0 mm 0.00 in0.0 mm
10:13 PM 56.1°F13.4°C 49.4°F9.7°C 78% 2.2 mph SSE3.5 kmh SSE 6.0 mph9.7 kmh 30.06 in1017.9 mb 0.00 in0.0 mm 0.00 in0.0 mm 0.00 in0.0 mm
10:18 PM 56.0°F13.3°C 49.3°F9.6°C 78% 1.3 mph S2.1 kmh S 6.0 mph9.7 kmh 30.07 in1018.3 mb 0.00 in0.0 mm 0.00 in0.0 mm 0.00 in0.0 mm
10:23 PM 55.8°F13.2°C 49.1°F9.5°C 78% 1.9 mph S3.1 kmh S 6.0 mph9.7 kmh 30.07 in1018.3 mb 0.00 in0.0 mm 0.00 in0.0 mm 0.00 in0.0 mm
10:28 PM 55.6°F13.1°C 48.9°F9.4°C 78% 1.4 mph SSE2.3 kmh SSE 6.0 mph9.7 kmh 30.07 in1018.3 mb 0.00 in0.0 mm 0.00 in0.0 mm 0.00 in0.0 mm
10:33 PM 55.4°F13.0°C 49.0°F9.4°C 79% 1.7 mph S2.7 kmh S 6.0 mph9.7 kmh 30.07 in1018.3 mb 0.00 in0.0 mm 0.00 in0.0 mm 0.00 in0.0 mm
10:38 PM 55.3°F12.9°C 48.9°F9.4°C 79% 1.2 mph SSE1.9 kmh SSE 6.0 mph9.7 kmh 30.08 in1018.6 mb 0.00 in0.0 mm 0.00 in0.0 mm 0.00 in0.0 mm
10:43 PM 55.2°F12.9°C 48.9°F9.4°C 79% 1.0 mph SW1.6 kmh SW 4.0 mph6.4 kmh 30.07 in1018.3 mb 0.00 in0.0 mm 0.00 in0.0 mm 0.00 in0.0 mm
10:48 PM 55.0°F12.8°C 49.0°F9.4°C 80% Calm Calm 4.0 mph6.4 kmh 30.07 in1018.3 mb 0.00 in0.0 mm 0.00 in0.0 mm 0.00 in0.0 mm
10:53 PM 54.9°F12.7°C 48.9°F9.4°C 80% Calm Calm 2.0 mph3.2 kmh 30.07 in1018.3 mb 0.00 in0.0 mm 0.00 in0.0 mm 0.00 in0.0 mm
10:58 PM 54.7°F12.6°C 49.0°F9.4°C 81% 1.0 mph SE1.6 kmh SE 2.0 mph3.2 kmh 30.07 in1018.3 mb 0.00 in0.0 mm 0.00 in0.0 mm 0.00 in0.0 mm
11:03 PM 54.5°F12.5°C 48.8°F9.3°C 81% 1.0 mph SE1.6 kmh SE 2.0 mph3.2 kmh 30.07 in1018.3 mb 0.00 in0.0 mm 0.00 in0.0 mm 0.00 in0.0 mm
11:08 PM 54.4°F12.4°C 49.0°F9.4°C 82% 1.5 mph SE2.4 kmh SE 3.0 mph4.8 kmh 30.07 in1018.3 mb 0.00 in0.0 mm 0.00 in0.0 mm 0.00 in0.0 mm
11:13 PM 54.4°F12.4°C 49.0°F9.4°C 82% 1.0 mph SE1.6 kmh SE 3.0 mph4.8 kmh 30.07 in1018.3 mb 0.00 in0.0 mm 0.00 in0.0 mm 0.00 in0.0 mm
11:18 PM 54.3°F12.4°C 48.9°F9.4°C 82% 1.5 mph SSE2.4 kmh SSE 3.0 mph4.8 kmh 30.07 in1018.3 mb 0.00 in0.0 mm 0.00 in0.0 mm 0.00 in0.0 mm
11:23 PM 54.4°F12.4°C 49.0°F9.4°C 82% 2.0 mph SE3.2 kmh SE 6.0 mph9.7 kmh 30.06 in1017.9 mb 0.00 in0.0 mm 0.00 in0.0 mm 0.00 in0.0 mm
11:28 PM 54.5°F12.5°C 49.1°F9.5°C 82% 1.4 mph SE2.3 kmh SE 6.0 mph9.7 kmh 30.07 in1018.3 mb 0.00 in0.0 mm 0.00 in0.0 mm 0.00 in0.0 mm
11:33 PM 54.5°F12.5°C 49.5°F9.7°C 83% 1.5 mph SSW2.4 kmh SSW 8.0 mph12.9 kmh 30.07 in1018.3 mb 0.00 in0.0 mm 0.00 in0.0 mm 0.00 in0.0 mm
11:38 PM 54.5°F12.5°C 49.5°F9.7°C 83% Calm Calm 8.0 mph12.9 kmh 30.07 in1018.3 mb 0.00 in0.0 mm 0.00 in0.0 mm 0.00 in0.0 mm
11:43 PM 54.5°F12.5°C 49.5°F9.7°C 83% 1.0 mph SSE1.6 kmh SSE 8.0 mph12.9 kmh 30.06 in1017.9 mb 0.00 in0.0 mm 0.00 in0.0 mm 0.00 in0.0 mm
11:48 PM 54.7°F12.6°C 49.7°F9.8°C 83% 1.6 mph SE2.6 kmh SE 8.0 mph12.9 kmh 30.06 in1017.9 mb 0.00 in0.0 mm 0.00 in0.0 mm 0.00 in0.0 mm
11:53 PM 54.7°F12.6°C 49.7°F9.8°C 83% 1.7 mph S2.7 kmh S 6.0 mph9.7 kmh 30.06 in1017.9 mb 0.00 in0.0 mm 0.00 in0.0 mm 0.00 in0.0 mm
11:58 PM 54.7°F12.6°C 49.7°F9.8°C 83% 1.8 mph SSE2.9 kmh SSE 6.0 mph9.7 kmh 30.05 in1017.6 mb 0.00 in0.0 mm 0.00 in0.0 mm 0.00 in0.0 mm